createdAt,value
2023-04-03T00:01:16.275Z,99.90
2023-04-03T00:03:44.938Z,99.90
2023-04-03T00:06:13.798Z,99.90
2023-04-03T00:08:42.393Z,99.90
2023-04-03T00:11:11.575Z,99.90
2023-04-03T00:13:41.326Z,99.90
2023-04-03T00:16:10.400Z,99.90
2023-04-03T00:18:38.970Z,99.90
2023-04-03T00:21:07.344Z,99.90
2023-04-03T00:23:35.917Z,99.90
2023-04-03T00:26:03.951Z,99.90
2023-04-03T00:28:31.930Z,99.90
2023-04-03T00:31:01.334Z,99.90
2023-04-03T00:33:29.442Z,99.90
2023-04-03T00:35:57.423Z,99.90
2023-04-03T00:38:25.751Z,99.90
2023-04-03T00:40:53.994Z,99.90
2023-04-03T00:43:24.465Z,99.90
2023-04-03T00:45:53.988Z,99.90
2023-04-03T00:48:28.061Z,99.90
2023-04-03T00:50:56.398Z,99.90
2023-04-03T00:53:27.714Z,99.90
2023-04-03T00:55:57.678Z,99.90
2023-04-03T00:58:34.377Z,99.90
2023-04-03T01:01:08.799Z,99.90
2023-04-03T01:03:38.394Z,99.90
2023-04-03T01:06:07.598Z,99.90
2023-04-03T01:08:36.728Z,99.90
2023-04-03T01:11:05.606Z,99.90
2023-04-03T01:13:35.155Z,99.90
2023-04-03T01:16:05.506Z,99.90
2023-04-03T01:18:35.526Z,99.90
2023-04-03T01:21:33.419Z,99.90
2023-04-03T01:24:19.858Z,99.90
2023-04-03T01:26:48.426Z,99.90
2023-04-03T01:29:16.362Z,99.90
2023-04-03T01:31:50.515Z,99.90
2023-04-03T01:34:18.607Z,99.90
2023-04-03T01:36:46.597Z,99.90
2023-04-03T01:39:14.881Z,99.90
2023-04-03T01:41:43.007Z,99.90
2023-04-03T01:44:16.673Z,99.90
2023-04-03T01:46:44.818Z,99.90
2023-04-03T01:49:14.319Z,99.90
2023-04-03T01:51:42.338Z,99.90
2023-04-03T01:54:10.462Z,99.90
2023-04-03T01:56:39.955Z,99.90
2023-04-03T01:59:07.974Z,99.90
2023-04-03T02:01:36.059Z,99.90
2023-04-03T02:04:04.211Z,99.90
2023-04-03T02:06:33.483Z,99.90
2023-04-03T02:09:01.464Z,99.90
2023-04-03T02:11:29.423Z,99.90
2023-04-03T02:13:57.452Z,99.90
2023-04-03T02:16:25.831Z,99.90
2023-04-03T02:18:53.818Z,99.90
2023-04-03T02:21:21.812Z,99.90
2023-04-03T02:23:51.220Z,99.90
2023-04-03T02:26:20.682Z,99.90
2023-04-03T02:28:48.767Z,99.90
2023-04-03T02:31:16.892Z,99.90
2023-04-03T02:33:47.564Z,99.90
2023-04-03T02:36:18.037Z,99.90
2023-04-03T02:38:53.526Z,99.90
2023-04-03T02:41:22.009Z,99.90
2023-04-03T02:43:51.718Z,99.90
2023-04-03T02:46:19.788Z,99.90
2023-04-03T02:48:47.848Z,99.90
2023-04-03T02:51:15.778Z,99.90
2023-04-03T02:53:43.700Z,99.90
2023-04-03T02:56:19.067Z,99.90
2023-04-03T02:58:47.179Z,99.90
2023-04-03T03:01:15.388Z,99.90
2023-04-03T03:03:43.376Z,99.90
2023-04-03T03:06:14.054Z,99.90
2023-04-03T03:08:42.668Z,99.90
2023-04-03T03:11:11.774Z,99.90
2023-04-03T03:13:41.059Z,99.90
2023-04-03T03:16:09.276Z,99.90
2023-04-03T03:18:37.935Z,99.90
2023-04-03T03:21:06.642Z,99.90
2023-04-03T03:23:34.888Z,99.90
2023-04-03T03:26:05.734Z,99.90
2023-04-03T03:28:37.195Z,99.90
2023-04-03T03:31:08.366Z,99.90
2023-04-03T03:33:38.571Z,99.90
2023-04-03T03:36:07.267Z,99.90
2023-04-03T03:38:35.398Z,99.90
2023-04-03T03:41:04.068Z,99.90
2023-04-03T03:43:34.724Z,99.90
2023-04-03T03:46:02.752Z,99.90
2023-04-03T03:48:32.069Z,99.90
2023-04-03T03:51:00.083Z,99.90
2023-04-03T03:53:32.222Z,99.90
2023-04-03T03:56:06.578Z,99.90
2023-04-03T03:58:36.077Z,99.90
2023-04-03T04:01:04.868Z,99.90
2023-04-03T04:03:34.685Z,99.90
2023-04-03T04:06:03.704Z,99.90
2023-04-03T04:08:32.326Z,99.90
2023-04-03T04:11:00.564Z,99.90
2023-04-03T04:13:28.498Z,99.90
2023-04-03T04:15:56.546Z,99.90
2023-04-03T04:18:24.932Z,99.90
2023-04-03T04:20:54.409Z,99.90
2023-04-03T04:23:23.291Z,99.90
2023-04-03T04:25:53.756Z,99.90
2023-04-03T04:28:22.630Z,99.90
2023-04-03T04:30:53.578Z,99.90
2023-04-03T04:33:23.213Z,99.90
2023-04-03T04:35:52.617Z,99.90
2023-04-03T04:38:23.612Z,99.90
2023-04-03T04:40:54.409Z,99.90
2023-04-03T04:43:22.885Z,99.90
2023-04-03T04:46:03.237Z,99.90
2023-04-03T04:48:33.945Z,99.90
2023-04-03T04:51:02.140Z,99.90
2023-04-03T04:53:31.771Z,99.90
2023-04-03T04:56:00.315Z,99.90
2023-04-03T04:58:28.375Z,99.90
2023-04-03T05:01:01.693Z,99.90
2023-04-03T05:03:30.822Z,99.90
2023-04-03T05:05:59.261Z,99.90
2023-04-03T05:08:28.047Z,99.90
2023-04-03T05:10:57.538Z,99.90
2023-04-03T05:13:27.576Z,99.90
2023-04-03T05:15:57.796Z,99.90
2023-04-03T05:18:26.264Z,99.90
2023-04-03T05:20:57.437Z,99.90
2023-04-03T05:23:27.187Z,99.90
2023-04-03T05:25:57.279Z,99.90
2023-04-03T05:28:25.427Z,99.90
2023-04-03T05:30:56.543Z,99.90
2023-04-03T05:33:27.225Z,99.90
2023-04-03T05:35:57.616Z,99.90
2023-04-03T05:38:29.936Z,99.90
2023-04-03T05:41:00.501Z,99.90
2023-04-03T05:43:28.487Z,99.90
2023-04-03T05:45:57.278Z,99.90
2023-04-03T05:48:27.871Z,99.90
2023-04-03T05:50:57.122Z,99.90
2023-04-03T05:53:30.070Z,99.90
2023-04-03T05:56:02.834Z,99.90
2023-04-03T05:58:34.016Z,99.90
2023-04-03T06:01:02.492Z,99.90
2023-04-03T06:03:31.073Z,99.90
2023-04-03T06:05:59.569Z,99.90
2023-04-03T06:08:27.635Z,99.90
2023-04-03T06:10:55.612Z,99.90
2023-04-03T06:13:25.033Z,99.90
2023-04-03T06:15:53.420Z,99.90
2023-04-03T06:18:21.556Z,99.90
2023-04-03T06:20:49.641Z,99.90
2023-04-03T06:23:17.578Z,99.90
2023-04-03T06:25:45.851Z,99.90
2023-04-03T06:28:14.261Z,99.90
2023-04-03T06:30:43.557Z,99.90
2023-04-03T06:33:11.738Z,99.90
2023-04-03T06:35:39.765Z,99.90
2023-04-03T06:38:10.478Z,99.90
2023-04-03T06:40:39.452Z,99.90
2023-04-03T06:43:08.302Z,99.90
2023-04-03T06:45:37.417Z,99.90
2023-04-03T06:48:07.575Z,99.90
2023-04-03T06:50:35.653Z,99.90
2023-04-03T06:53:04.569Z,99.90
2023-04-03T06:55:32.673Z,99.90
2023-04-03T06:58:01.563Z,99.90
2023-04-03T07:00:29.892Z,99.90
2023-04-03T07:02:58.608Z,99.90
2023-04-03T07:05:28.107Z,99.90
2023-04-03T07:07:56.044Z,99.90
2023-04-03T07:10:24.103Z,99.90
2023-04-03T07:12:52.141Z,99.90
2023-04-03T07:15:20.301Z,99.90
2023-04-03T07:17:48.508Z,99.90
2023-04-03T07:20:16.826Z,99.90
2023-04-03T07:22:46.403Z,99.90
2023-04-03T07:25:14.367Z,99.90
2023-04-03T07:27:42.342Z,99.90
2023-04-03T07:30:11.302Z,99.90
2023-04-03T07:32:39.573Z,99.90
2023-04-03T07:35:07.781Z,99.90
2023-04-03T07:37:35.908Z,99.90
2023-04-03T07:40:06.299Z,99.90
2023-04-03T07:42:34.322Z,99.90
2023-04-03T07:45:02.603Z,99.90
2023-04-03T07:47:30.621Z,99.90
2023-04-03T07:49:59.099Z,99.90
2023-04-03T07:52:27.384Z,99.90
2023-04-03T07:54:55.375Z,99.90
2023-04-03T07:57:24.769Z,99.90
2023-04-03T07:59:52.798Z,99.90
2023-04-03T08:02:20.959Z,99.90
2023-04-03T08:04:49.005Z,99.90
2023-04-03T08:07:17.145Z,99.90
2023-04-03T08:09:45.800Z,99.90
2023-04-03T08:12:15.025Z,99.90
2023-04-03T08:14:44.333Z,99.90
2023-04-03T08:17:13.789Z,99.90
2023-04-03T08:19:42.636Z,99.90
2023-04-03T08:22:11.243Z,99.90
2023-04-03T08:24:41.090Z,99.90
2023-04-03T08:27:13.824Z,99.90
2023-04-03T08:29:41.789Z,99.90
2023-04-03T08:32:11.861Z,99.90
2023-04-03T08:34:40.456Z,99.90
2023-04-03T08:37:08.436Z,99.90
2023-04-03T08:39:36.865Z,99.90
2023-04-03T08:42:13.073Z,99.90
2023-04-03T08:44:48.129Z,99.90
2023-04-03T08:47:25.397Z,99.90
2023-04-03T08:49:55.781Z,99.90
2023-04-03T08:52:33.956Z,99.90
2023-04-03T08:55:05.505Z,99.90
2023-04-03T08:57:37.351Z,99.90
2023-04-03T09:00:08.818Z,99.90
2023-04-03T09:02:45.599Z,99.90
2023-04-03T09:05:18.735Z,99.90
2023-04-03T09:07:50.131Z,99.90
2023-04-03T09:10:25.333Z,99.90
2023-04-03T09:13:01.734Z,99.90
2023-04-03T09:15:39.113Z,99.90
2023-04-03T09:18:17.774Z,99.90
2023-04-03T09:20:51.592Z,99.90
2023-04-03T09:23:26.824Z,99.90
2023-04-03T09:25:59.934Z,99.90
2023-04-03T09:28:29.298Z,99.90
2023-04-03T09:30:58.915Z,99.90
2023-04-03T09:33:29.397Z,99.90
2023-04-03T09:35:57.348Z,99.90
2023-04-03T09:38:26.513Z,99.90
2023-04-03T09:41:07.190Z,99.90
2023-04-03T09:43:36.922Z,99.90
2023-04-03T09:46:30.077Z,99.90
2023-04-03T09:49:08.763Z,99.90
2023-04-03T09:51:38.866Z,99.90
2023-04-03T09:54:28.330Z,99.90
2023-04-03T09:56:58.057Z,99.90
2023-04-03T09:59:26.486Z,99.90
2023-04-03T10:02:04.323Z,99.90
2023-04-03T10:04:41.802Z,99.90
2023-04-03T10:07:31.125Z,99.90
2023-04-03T10:10:00.026Z,99.90
2023-04-03T10:12:28.060Z,99.90
2023-04-03T10:14:59.160Z,99.90
2023-04-03T10:17:39.258Z,99.90
2023-04-03T10:20:26.030Z,99.90
2023-04-03T10:23:04.033Z,99.90
2023-04-03T10:25:37.301Z,99.90
2023-04-03T10:28:12.223Z,99.90
2023-04-03T10:30:49.282Z,99.90
2023-04-03T10:33:36.318Z,99.90
2023-04-03T10:36:14.253Z,99.90
2023-04-03T10:38:50.624Z,99.90
2023-04-03T10:41:24.894Z,99.90
2023-04-03T10:43:59.804Z,99.90
2023-04-03T10:46:33.048Z,99.90
2023-04-03T10:49:26.380Z,99.90
2023-04-03T10:52:02.190Z,99.90
2023-04-03T10:54:36.405Z,99.90
2023-04-03T10:57:12.584Z,99.90
2023-04-03T10:59:46.908Z,99.90
2023-04-03T11:02:21.640Z,99.90
2023-04-03T11:04:53.209Z,99.90
2023-04-03T11:07:25.134Z,99.90
2023-04-03T11:09:58.944Z,99.90
2023-04-03T11:12:35.630Z,99.90
2023-04-03T11:15:05.081Z,99.90
2023-04-03T11:17:40.008Z,99.90
2023-04-03T11:20:17.577Z,99.90
2023-04-03T11:22:52.571Z,99.70
2023-04-03T11:25:24.619Z,99.90
2023-04-03T11:27:57.102Z,99.40
2023-04-03T11:30:33.139Z,99.70
2023-04-03T11:33:13.837Z,99.40
2023-04-03T11:35:46.037Z,99.40
2023-04-03T11:38:23.100Z,99.90
2023-04-03T11:40:52.201Z,99.90
2023-04-03T11:43:26.879Z,99.90
2023-04-03T11:45:59.889Z,99.90
2023-04-03T11:48:52.489Z,99.90
2023-04-03T11:51:44.736Z,99.90
2023-04-03T11:54:45.814Z,99.90
2023-04-03T11:58:03.775Z,99.90
2023-04-03T12:01:08.553Z,99.20
2023-04-03T12:04:03.357Z,98.50
2023-04-03T12:07:16.434Z,99.00
2023-04-03T12:10:31.625Z,98.80
2023-04-03T12:13:04.908Z,98.60
2023-04-03T12:15:58.125Z,99.00
2023-04-03T12:18:57.963Z,99.10
2023-04-03T12:21:47.296Z,98.60
2023-04-03T12:24:30.042Z,98.60
2023-04-03T12:27:11.225Z,98.00
2023-04-03T12:29:45.585Z,97.40
2023-04-03T12:32:24.705Z,97.40
2023-04-03T12:35:06.398Z,97.50
2023-04-03T12:38:05.043Z,97.00
2023-04-03T12:40:37.944Z,96.80
2023-04-03T12:43:33.260Z,97.20
2023-04-03T12:46:05.814Z,97.00
2023-04-03T12:48:41.511Z,97.00
2023-04-03T12:51:09.642Z,97.50
2023-04-03T12:53:39.614Z,97.50
2023-04-03T12:56:25.966Z,97.50
2023-04-03T12:58:56.765Z,97.30
2023-04-03T13:01:26.234Z,97.10
2023-04-03T13:03:57.057Z,97.20
2023-04-03T13:06:28.130Z,97.40
2023-04-03T13:08:59.026Z,97.60
2023-04-03T13:11:29.566Z,96.40
2023-04-03T13:14:00.689Z,96.80
2023-04-03T13:16:28.929Z,96.40
2023-04-03T13:18:57.676Z,96.40
2023-04-03T13:21:28.620Z,96.10
2023-04-03T13:24:13.944Z,95.50
2023-04-03T13:26:43.837Z,95.50
2023-04-03T13:29:28.157Z,96.00
2023-04-03T13:32:00.087Z,96.30
2023-04-03T13:34:32.644Z,96.10
2023-04-03T13:37:04.149Z,95.60
2023-04-03T13:39:34.751Z,95.20
2023-04-03T13:42:16.158Z,94.70
2023-04-03T13:44:45.727Z,94.70
2023-04-03T13:47:21.552Z,95.40
2023-04-03T13:50:02.344Z,93.20
2023-04-03T13:52:36.589Z,92.70
2023-04-03T13:55:25.660Z,92.30
2023-04-03T13:57:57.883Z,92.00
2023-04-03T14:00:38.097Z,91.30
2023-04-03T14:03:14.734Z,90.80
2023-04-03T14:05:43.067Z,91.10
2023-04-03T14:08:11.039Z,91.30
2023-04-03T14:10:39.783Z,91.80
2023-04-03T14:13:08.051Z,92.10
2023-04-03T14:15:37.577Z,92.40
2023-04-03T14:18:06.699Z,92.80
2023-04-03T14:20:36.464Z,92.90
2023-04-03T14:23:04.699Z,92.50
2023-04-03T14:25:32.714Z,93.10
2023-04-03T14:28:00.991Z,92.70
2023-04-03T14:30:32.087Z,91.90
2023-04-03T14:33:02.046Z,92.10
2023-04-03T14:35:31.267Z,91.70
2023-04-03T14:37:59.297Z,91.70
2023-04-03T14:40:28.991Z,91.40
2023-04-03T14:42:58.311Z,91.00
2023-04-03T14:45:27.289Z,90.30
2023-04-03T14:47:57.620Z,90.60
2023-04-03T14:50:29.288Z,90.30
2023-04-03T14:53:00.229Z,88.60
2023-04-03T14:55:28.712Z,86.80
2023-04-03T14:57:56.809Z,84.30
2023-04-03T15:00:24.945Z,84.20
2023-04-03T15:02:53.566Z,85.20
2023-04-03T15:05:21.738Z,85.90
2023-04-03T15:07:54.503Z,86.70
2023-04-03T15:10:24.580Z,85.60
2023-04-03T15:12:53.384Z,85.70
2023-04-03T15:15:23.020Z,85.50
2023-04-03T15:17:55.768Z,85.80
2023-04-03T15:20:26.104Z,86.30
2023-04-03T15:22:57.225Z,86.20
2023-04-03T15:25:26.266Z,87.90
2023-04-03T15:27:55.209Z,85.90
2023-04-03T15:30:23.471Z,84.80
2023-04-03T15:32:51.674Z,84.20
2023-04-03T15:35:19.931Z,80.00
2023-04-03T15:37:49.107Z,76.60
2023-04-03T15:40:18.631Z,78.00
2023-04-03T15:42:46.658Z,79.30
2023-04-03T15:45:14.654Z,81.80
2023-04-03T15:47:43.695Z,80.70
2023-04-03T15:50:12.479Z,80.80
2023-04-03T15:52:40.659Z,79.00
2023-04-03T15:55:08.886Z,76.90
2023-04-03T16:00:12.461Z,73.40
2023-04-03T16:02:40.699Z,73.60
2023-04-03T16:05:10.529Z,75.30
2023-04-03T16:07:39.416Z,76.60
2023-04-03T16:10:08.882Z,78.00
2023-04-03T16:12:38.409Z,77.90
2023-04-03T16:15:07.805Z,78.60
2023-04-03T16:17:37.684Z,79.80
2023-04-03T16:20:08.298Z,80.40
2023-04-03T16:22:36.552Z,81.80
2023-04-03T16:25:05.737Z,82.20
2023-04-03T16:27:33.816Z,82.80
2023-04-03T16:30:03.211Z,81.50
2023-04-03T16:32:33.595Z,81.40
2023-04-03T16:37:35.913Z,84.50
2023-04-03T16:40:04.709Z,84.60
2023-04-03T16:42:32.669Z,84.70
2023-04-03T16:45:03.691Z,83.20
2023-04-03T16:47:33.115Z,82.40
2023-04-03T16:50:01.361Z,82.40
2023-04-03T16:52:29.475Z,82.90
2023-04-03T16:54:59.683Z,83.40
2023-04-03T16:57:27.786Z,83.70
2023-04-03T16:59:56.623Z,83.60
2023-04-03T17:02:26.593Z,83.90
2023-04-03T17:04:56.307Z,83.40
2023-04-03T17:07:26.718Z,83.20
2023-04-03T17:09:55.057Z,82.60
2023-04-03T17:12:23.388Z,83.00
2023-04-03T17:14:51.442Z,83.00
2023-04-03T17:17:23.721Z,83.20
2023-04-03T17:19:51.856Z,83.50
2023-04-03T17:22:21.375Z,83.50
2023-04-03T17:24:49.425Z,84.40
2023-04-03T17:27:17.411Z,84.40
2023-04-03T17:29:45.471Z,84.10
2023-04-03T17:32:13.541Z,84.80
2023-04-03T17:34:41.645Z,84.90
2023-04-03T17:37:09.614Z,85.20
2023-04-03T17:39:38.999Z,85.30
2023-04-03T17:42:07.031Z,85.60
2023-04-03T17:44:35.055Z,85.60
2023-04-03T17:47:03.199Z,85.70
2023-04-03T17:49:31.497Z,86.30
2023-04-03T17:51:59.425Z,86.30
2023-04-03T17:54:27.605Z,86.80
2023-04-03T17:56:56.962Z,87.00
2023-04-03T17:59:24.853Z,86.40
2023-04-03T18:01:53.331Z,87.00
2023-04-03T18:04:21.437Z,87.40
2023-04-03T18:06:52.232Z,87.60
2023-04-03T18:09:23.601Z,88.10
2023-04-03T18:11:53.049Z,89.20
2023-04-03T18:14:26.410Z,89.90
2023-04-03T18:16:56.830Z,90.00
2023-04-03T18:19:25.959Z,90.40
2023-04-03T18:21:58.652Z,90.40
2023-04-03T18:24:28.033Z,90.90
2023-04-03T18:26:59.516Z,90.70
2023-04-03T18:29:31.536Z,90.70
2023-04-03T18:32:00.005Z,90.70
2023-04-03T18:34:28.015Z,90.70
2023-04-03T18:36:56.145Z,90.60
2023-04-03T18:39:25.012Z,90.60
2023-04-03T18:41:55.191Z,90.80
2023-04-03T18:44:25.991Z,90.70
2023-04-03T18:46:56.831Z,90.80
2023-04-03T18:49:25.064Z,90.90
2023-04-03T18:51:52.980Z,91.10
2023-04-03T18:54:21.023Z,91.30
2023-04-03T18:56:49.123Z,91.30
2023-04-03T18:59:17.107Z,91.40
2023-04-03T19:01:45.326Z,91.60
2023-04-03T19:04:14.990Z,91.80
2023-04-03T19:06:42.985Z,91.80
2023-04-03T19:09:11.388Z,92.10
2023-04-03T19:11:39.737Z,92.40
2023-04-03T19:14:15.164Z,92.40
2023-04-03T19:16:44.913Z,92.20
2023-04-03T19:19:14.366Z,92.30
2023-04-03T19:21:42.579Z,92.30
2023-04-03T19:24:12.091Z,92.70
2023-04-03T19:26:40.896Z,92.80
2023-04-03T19:29:09.378Z,92.60
2023-04-03T19:31:38.824Z,92.30
2023-04-03T19:34:07.974Z,92.40
2023-04-03T19:36:37.512Z,92.60
2023-04-03T19:39:06.160Z,92.50
2023-04-03T19:41:36.553Z,92.20
2023-04-03T19:44:06.554Z,91.80
2023-04-03T19:46:34.998Z,91.80
2023-04-03T19:49:03.329Z,91.50
2023-04-03T19:51:31.351Z,91.80
2023-04-03T19:54:00.641Z,91.90
2023-04-03T19:56:28.598Z,92.00
2023-04-03T19:58:56.739Z,91.90
2023-04-03T20:01:26.854Z,91.80
2023-04-03T20:03:55.010Z,92.10
2023-04-03T20:06:23.025Z,92.10
2023-04-03T20:08:51.053Z,92.50
2023-04-03T20:11:21.070Z,92.20
2023-04-03T20:13:50.393Z,92.30
2023-04-03T20:16:18.728Z,92.60
2023-04-03T20:18:47.580Z,92.30
2023-04-03T20:21:15.973Z,92.10
2023-04-03T20:23:44.975Z,92.30
2023-04-03T20:26:23.487Z,92.30
2023-04-03T20:28:52.550Z,92.40
2023-04-03T20:31:21.857Z,92.70
2023-04-03T20:33:50.089Z,92.90
2023-04-03T20:36:19.881Z,92.90
2023-04-03T20:38:48.881Z,93.00
2023-04-03T20:41:17.660Z,93.20
2023-04-03T20:43:47.358Z,93.30
2023-04-03T20:46:19.381Z,93.50
2023-04-03T20:48:48.255Z,93.50
2023-04-03T20:51:19.100Z,93.80
2023-04-03T20:53:47.643Z,94.10
2023-04-03T20:56:15.897Z,94.40
2023-04-03T20:58:46.060Z,94.50
2023-04-03T21:01:17.229Z,94.70
2023-04-03T21:03:46.163Z,94.80
2023-04-03T21:06:51.980Z,95.00
2023-04-03T21:09:57.890Z,95.30
2023-04-03T21:13:04.030Z,95.60
2023-04-03T21:15:51.228Z,95.90
2023-04-03T21:18:38.159Z,96.10
2023-04-03T21:21:06.464Z,96.40
2023-04-03T21:23:34.560Z,96.60
2023-04-03T21:26:03.100Z,96.70
2023-04-03T21:28:31.686Z,96.90
2023-04-03T21:30:59.717Z,97.00
2023-04-03T21:33:29.028Z,97.10
2023-04-03T21:35:59.907Z,97.20
2023-04-03T21:38:28.201Z,97.30
2023-04-03T21:40:57.820Z,97.50
2023-04-03T21:43:25.841Z,97.70
2023-04-03T21:45:55.650Z,97.60
2023-04-03T21:48:24.125Z,97.80
2023-04-03T21:50:54.229Z,97.60
2023-04-03T21:53:22.582Z,97.80
2023-04-03T21:55:57.368Z,98.00
2023-04-03T21:58:30.490Z,98.00
2023-04-03T22:00:58.850Z,98.20
2023-04-03T22:03:27.057Z,98.30
2023-04-03T22:05:59.478Z,98.60
2023-04-03T22:08:27.386Z,98.60
2023-04-03T22:11:01.682Z,98.90
2023-04-03T22:13:29.541Z,99.00
2023-04-03T22:15:57.696Z,99.20
2023-04-03T22:18:25.777Z,99.40
2023-04-03T22:20:54.257Z,99.40
2023-04-03T22:23:23.561Z,99.60
2023-04-03T22:26:01.415Z,99.60
2023-04-03T22:28:30.009Z,99.70
2023-04-03T22:30:58.078Z,99.80
2023-04-03T22:33:26.065Z,99.90
2023-04-03T22:35:54.023Z,99.90
2023-04-03T22:38:23.961Z,99.90
2023-04-03T22:40:58.626Z,99.90
2023-04-03T22:43:27.515Z,99.90
2023-04-03T22:45:55.631Z,99.90
2023-04-03T22:48:23.986Z,99.90
2023-04-03T22:50:52.554Z,99.90
2023-04-03T22:53:20.805Z,99.90
2023-04-03T22:55:56.788Z,99.90
2023-04-03T22:58:26.478Z,99.90
2023-04-03T23:00:55.620Z,99.90
2023-04-03T23:03:25.457Z,99.90
2023-04-03T23:05:55.999Z,99.90
2023-04-03T23:08:24.081Z,99.90
2023-04-03T23:10:57.227Z,99.90
2023-04-03T23:13:25.446Z,99.90
2023-04-03T23:15:57.266Z,99.90
2023-04-03T23:18:25.900Z,99.90
2023-04-03T23:20:55.065Z,99.90
2023-04-03T23:23:23.584Z,99.90
2023-04-03T23:25:57.142Z,99.90
2023-04-03T23:28:25.782Z,99.90
2023-04-03T23:30:59.225Z,99.90
2023-04-03T23:33:27.382Z,99.90
2023-04-03T23:35:55.555Z,99.90
2023-04-03T23:38:23.512Z,99.90
2023-04-03T23:40:51.645Z,99.90
2023-04-03T23:43:20.962Z,99.90
2023-04-03T23:45:49.005Z,99.90
2023-04-03T23:48:17.160Z,99.90
2023-04-03T23:50:45.674Z,99.90
2023-04-03T23:53:13.838Z,99.90
2023-04-03T23:55:42.015Z,99.90
2023-04-03T23:58:10.710Z,99.90
